Time;durP1;ratioP1;P1;durP2;ratioP2;P2;SDS_P1;SDS_P2;PMS_P1;PMS_P2;Temp;Humidity;BMP_temperature;BMP_pressure;BME280_temperature;BME280_humidity;BME280_pressure;Samples;Min_cycle;Max_cycle;Signal;HPM_P1;HPM_P2
2023/01/26 00:01:19;;;;;;;114.60;28.83;;;;;;;;;;5007654;28;20030;-61
2023/01/26 00:03:45;;;;;;;115.20;29.42;;;;;;;;;;5008912;28;20399;-61
2023/01/26 00:06:13;;;;;;;101.72;28.33;;;;;;;;;;5009466;28;20034;-61
2023/01/26 00:08:40;;;;;;;112.82;31.05;;;;;;;;;;5012123;28;20029;-61
2023/01/26 00:11:07;;;;;;;116.35;30.02;;;;;;;;;;5007717;28;20038;-61
2023/01/26 00:13:34;;;;;;;122.13;31.63;;;;;;;;;;5009777;28;20046;-61
2023/01/26 00:16:00;;;;;;;114.15;31.38;;;;;;;;;;5010140;28;20497;-61
2023/01/26 00:18:25;;;;;;;129.18;33.60;;;;;;;;;;5008342;28;20064;-60
2023/01/26 00:20:58;;;;;;;113.80;31.80;;;;;;;;;;5010542;28;20065;-60
2023/01/26 00:23:24;;;;;;;118.05;31.95;;;;;;;;;;5008800;28;20034;-61
2023/01/26 00:25:49;;;;;;;118.70;31.55;;;;;;;;;;5011706;28;20034;-61
2023/01/26 00:28:15;;;;;;;103.05;30.67;;;;;;;;;;5009662;28;20457;-62
2023/01/26 00:30:40;;;;;;;105.10;29.80;;;;;;;;;;5010465;28;20467;-61
2023/01/26 00:33:05;;;;;;;104.00;31.08;;;;;;;;;;5009229;28;20052;-62
2023/01/26 00:35:31;;;;;;;109.35;29.90;;;;;;;;;;5006858;28;20441;-61
2023/01/26 00:37:56;;;;;;;109.40;30.10;;;;;;;;;;5010105;28;20034;-62
2023/01/26 00:40:22;;;;;;;110.53;29.00;;;;;;;;;;5011645;28;20040;-61
2023/01/26 00:42:47;;;;;;;92.68;27.27;;;;;;;;;;5011008;28;20076;-61
2023/01/26 00:45:12;;;;;;;105.25;28.60;;;;;;;;;;5007583;28;20109;-61
2023/01/26 00:47:38;;;;;;;101.00;28.60;;;;;;;;;;5008067;28;20482;-61
2023/01/26 00:50:04;;;;;;;100.57;27.88;;;;;;;;;;5009282;28;20474;-61
2023/01/26 00:52:29;;;;;;;103.05;28.70;;;;;;;;;;5010627;28;20044;-60
2023/01/26 00:54:55;;;;;;;106.18;29.23;;;;;;;;;;5009092;28;20033;-60
2023/01/26 00:57:20;;;;;;;111.80;30.15;;;;;;;;;;5010510;28;20041;-60
2023/01/26 00:59:45;;;;;;;111.85;29.15;;;;;;;;;;5010782;28;20360;-60
2023/01/26 01:02:11;;;;;;;110.20;30.00;;;;;;;;;;5007271;28;20042;-60
2023/01/26 01:04:36;;;;;;;109.07;30.48;;;;;;;;;;5007637;28;20038;-61
2023/01/26 01:07:01;;;;;;;101.65;29.23;;;;;;;;;;5009810;28;20037;-61
2023/01/26 01:09:27;;;;;;;111.35;31.13;;;;;;;;;;5010444;28;20067;-61
2023/01/26 01:11:52;;;;;;;120.95;30.85;;;;;;;;;;5006573;28;20057;-61
2023/01/26 01:14:18;;;;;;;107.65;28.75;;;;;;;;;;5009748;28;20030;-60
2023/01/26 01:16:44;;;;;;;104.43;25.50;;;;;;;;;;5010805;28;20042;-61
2023/01/26 01:19:19;;;;;;;108.18;28.83;;;;;;;;;;5008619;28;20030;-60
2023/01/26 01:21:44;;;;;;;106.93;28.30;;;;;;;;;;5009069;28;20030;-61
2023/01/26 01:24:11;;;;;;;107.13;28.02;;;;;;;;;;5008120;28;20039;-61
2023/01/26 01:26:37;;;;;;;108.18;28.58;;;;;;;;;;5006982;28;20033;-60
2023/01/26 01:29:03;;;;;;;109.65;28.02;;;;;;;;;;5009691;28;20037;-60
2023/01/26 01:31:28;;;;;;;111.82;29.17;;;;;;;;;;5010361;28;20038;-61
2023/01/26 01:33:54;;;;;;;103.57;27.90;;;;;;;;;;5009684;28;20041;-60
2023/01/26 01:36:20;;;;;;;108.57;28.55;;;;;;;;;;5012866;28;20116;-61
2023/01/26 01:38:46;;;;;;;105.13;27.90;;;;;;;;;;5008513;28;20041;-62
2023/01/26 01:41:14;;;;;;;104.22;28.98;;;;;;;;;;5008766;28;20026;-61
2023/01/26 01:43:39;;;;;;;109.30;29.30;;;;;;;;;;5011855;28;20390;-61
2023/01/26 01:46:26;;;;;;;113.60;30.23;;;;;;;;;;5013132;28;20044;-62
2023/01/26 01:49:01;;;;;;;118.03;29.08;;;;;;;;;;5011546;28;20049;-61
2023/01/26 01:51:31;;;;;;;119.80;31.00;;;;;;;;;;5011950;28;20368;-62
2023/01/26 01:54:01;;;;;;;118.00;29.38;;;;;;;;;;5013883;28;20042;-61
2023/01/26 01:56:28;;;;;;;118.03;29.00;;;;;;;;;;5013602;28;20548;-61
2023/01/26 01:58:56;;;;;;;113.20;31.02;;;;;;;;;;5013071;28;20109;-61
2023/01/26 02:01:23;;;;;;;100.85;25.95;;;;;;;;;;5011518;28;20470;-61
2023/01/26 02:03:52;;;;;;;112.25;28.05;;;;;;;;;;5012163;28;20497;-61
2023/01/26 02:06:45;;;;;;;123.25;29.17;;;;;;;;;;5009753;28;20030;-60
2023/01/26 02:10:17;;;;;;;109.22;28.20;;;;;;;;;;5012024;28;20034;-60
2023/01/26 02:12:02;;;;;;;118.65;28.40;;;;;;;;;;5010424;28;20034;-60
2023/01/26 02:14:28;;;;;;;117.90;27.65;;;;;;;;;;5008856;28;20038;-60
2023/01/26 02:16:53;;;;;;;109.13;27.42;;;;;;;;;;5008803;28;20041;-60
2023/01/26 02:19:29;;;;;;;118.88;29.10;;;;;;;;;;5010749;28;20101;-60
2023/01/26 02:22:01;;;;;;;117.15;29.10;;;;;;;;;;5010793;28;20049;-60
2023/01/26 02:24:33;;;;;;;118.32;28.95;;;;;;;;;;5012874;28;20152;-61
2023/01/26 02:26:59;;;;;;;121.72;28.85;;;;;;;;;;5013763;28;20079;-61
2023/01/26 02:29:24;;;;;;;109.75;29.10;;;;;;;;;;5011093;28;20120;-61
2023/01/26 02:31:52;;;;;;;108.60;27.10;;;;;;;;;;5013149;28;20053;-61
2023/01/26 02:34:17;;;;;;;114.70;26.67;;;;;;;;;;5010783;28;20485;-61
2023/01/26 02:36:43;;;;;;;115.55;28.20;;;;;;;;;;5012297;28;20077;-61
2023/01/26 02:39:49;;;;;;;110.90;27.90;;;;;;;;;;5009470;28;20030;-62
2023/01/26 02:44:59;;;;;;;113.45;27.67;;;;;;;;;;5011656;28;20061;-61
2023/01/26 02:47:24;;;;;;;117.03;29.05;;;;;;;;;;5011538;28;20034;-60
2023/01/26 02:49:50;;;;;;;96.57;25.52;;;;;;;;;;5011522;28;20029;-61
2023/01/26 02:52:18;;;;;;;110.45;28.40;;;;;;;;;;5010473;28;20410;-62
2023/01/26 02:57:28;;;;;;;107.15;27.60;;;;;;;;;;4995269;28;20041;-61
2023/01/26 02:59:54;;;;;;;123.93;28.38;;;;;;;;;;5010508;28;20120;-61
2023/01/26 03:02:19;;;;;;;122.93;29.45;;;;;;;;;;5009620;28;20034;-60
2023/01/26 03:04:45;;;;;;;116.53;29.60;;;;;;;;;;5001106;28;20049;-61
2023/01/26 03:07:10;;;;;;;126.93;30.60;;;;;;;;;;5002330;28;20360;-62
2023/01/26 03:09:36;;;;;;;122.50;29.73;;;;;;;;;;5010961;28;20037;-60
2023/01/26 03:12:02;;;;;;;128.23;28.90;;;;;;;;;;5011745;28;20501;-61
2023/01/26 03:14:27;;;;;;;128.10;30.42;;;;;;;;;;5011944;28;20034;-61
2023/01/26 03:16:54;;;;;;;126.05;30.92;;;;;;;;;;5012869;28;20032;-62
2023/01/26 03:27:50;;;;;;;128.82;29.30;;;;;;;;;;5012467;28;20084;-61
2023/01/26 03:30:18;;;;;;;126.38;29.42;;;;;;;;;;5010674;28;20073;-61
2023/01/26 03:32:43;;;;;;;118.00;27.92;;;;;;;;;;5012728;28;20788;-62
2023/01/26 03:35:14;;;;;;;102.68;25.95;;;;;;;;;;5008604;28;20109;-61
2023/01/26 03:37:42;;;;;;;128.18;28.83;;;;;;;;;;5011691;28;20026;-61
2023/01/26 03:56:35;;;;;;;119.45;28.85;;;;;;;;;;5021535;28;20072;-61
2023/01/26 03:59:09;;;;;;;104.13;24.88;;;;;;;;;;5010653;28;20061;-62
2023/01/26 04:01:40;;;;;;;107.90;26.40;;;;;;;;;;5010290;28;20038;-61
2023/01/26 04:09:35;;;;;;;126.25;28.33;;;;;;;;;;5000195;28;20104;-61
2023/01/26 04:12:02;;;;;;;114.47;26.58;;;;;;;;;;5007208;28;20042;-61
2023/01/26 04:22:43;;;;;;;119.95;27.92;;;;;;;;;;5011438;28;20041;-61
2023/01/26 04:25:12;;;;;;;116.88;30.13;;;;;;;;;;5010142;28;20124;-61
2023/01/26 04:27:39;;;;;;;134.82;30.60;;;;;;;;;;5011932;28;20029;-62
2023/01/26 04:30:07;;;;;;;115.65;28.63;;;;;;;;;;5009945;28;20038;-61
2023/01/26 04:32:33;;;;;;;129.98;29.42;;;;;;;;;;5008456;28;20041;-61
2023/01/26 04:34:58;;;;;;;122.20;29.17;;;;;;;;;;5009227;28;20399;-61
2023/01/26 04:37:23;;;;;;;116.22;27.90;;;;;;;;;;5009764;28;20050;-61
2023/01/26 04:39:49;;;;;;;119.43;28.85;;;;;;;;;;5008831;28;20114;-61
2023/01/26 04:42:14;;;;;;;128.30;27.42;;;;;;;;;;5010110;28;20410;-62
2023/01/26 04:44:39;;;;;;;113.03;28.80;;;;;;;;;;5011569;28;20038;-61
2023/01/26 04:47:05;;;;;;;126.88;29.52;;;;;;;;;;5011796;28;20030;-61
2023/01/26 04:49:30;;;;;;;115.97;29.08;;;;;;;;;;5008924;28;20038;-61
2023/01/26 04:51:55;;;;;;;121.10;31.13;;;;;;;;;;5011833;28;20040;-62
2023/01/26 04:54:21;;;;;;;133.93;31.80;;;;;;;;;;5008615;28;20038;-60
2023/01/26 04:56:47;;;;;;;132.60;34.08;;;;;;;;;;5010490;28;20455;-61
2023/01/26 04:59:13;;;;;;;135.80;34.30;;;;;;;;;;5008293;28;20386;-61
2023/01/26 05:01:39;;;;;;;148.65;36.05;;;;;;;;;;5010386;28;20029;-61
2023/01/26 05:04:05;;;;;;;149.32;37.75;;;;;;;;;;5004778;28;20080;-61
2023/01/26 05:06:30;;;;;;;127.13;34.30;;;;;;;;;;5009497;28;20040;-62
2023/01/26 05:08:56;;;;;;;132.68;34.50;;;;;;;;;;5013509;28;20116;-61
2023/01/26 05:11:22;;;;;;;122.97;33.35;;;;;;;;;;5013290;28;20492;-61
2023/01/26 05:13:47;;;;;;;112.70;34.50;;;;;;;;;;5008561;28;20086;-61
2023/01/26 05:16:13;;;;;;;124.05;33.85;;;;;;;;;;5013118;28;20038;-61
2023/01/26 05:18:40;;;;;;;122.70;34.40;;;;;;;;;;5015886;28;20032;-61
2023/01/26 05:21:07;;;;;;;129.02;34.20;;;;;;;;;;5014661;28;20080;-60
2023/01/26 05:23:32;;;;;;;135.55;34.10;;;;;;;;;;5007396;28;20694;-61
2023/01/26 05:25:57;;;;;;;127.88;33.33;;;;;;;;;;5014780;28;20034;-61
2023/01/26 05:28:23;;;;;;;122.20;31.50;;;;;;;;;;5012758;28;20037;-60
2023/01/26 05:30:48;;;;;;;131.80;31.27;;;;;;;;;;5012965;28;20030;-61
2023/01/26 05:33:14;;;;;;;129.13;30.85;;;;;;;;;;5012531;28;20041;-60
2023/01/26 05:35:40;;;;;;;136.27;32.08;;;;;;;;;;5012572;28;20042;-60
2023/01/26 05:38:05;;;;;;;120.82;28.95;;;;;;;;;;5012521;28;20410;-60
2023/01/26 05:40:31;;;;;;;127.53;29.63;;;;;;;;;;5013150;28;20029;-62
2023/01/26 05:42:56;;;;;;;108.25;28.63;;;;;;;;;;5011892;28;20101;-62
2023/01/26 05:45:22;;;;;;;98.03;26.58;;;;;;;;;;5013005;28;20087;-61
2023/01/26 05:47:50;;;;;;;106.15;26.38;;;;;;;;;;5013224;28;20037;-62
2023/01/26 05:50:16;;;;;;;92.28;24.40;;;;;;;;;;5009252;28;20037;-62
2023/01/26 05:52:43;;;;;;;109.90;25.73;;;;;;;;;;5008958;28;20091;-62
2023/01/26 05:55:08;;;;;;;94.60;23.70;;;;;;;;;;5010635;28;20030;-62
2023/01/26 05:57:35;;;;;;;92.63;23.35;;;;;;;;;;5011569;28;20267;-61
2023/01/26 06:00:01;;;;;;;88.32;22.83;;;;;;;;;;5013069;28;20391;-61
2023/01/26 06:02:26;;;;;;;82.32;23.33;;;;;;;;;;5009035;28;20026;-61
2023/01/26 06:04:52;;;;;;;84.15;23.17;;;;;;;;;;5012383;28;20030;-60
2023/01/26 06:07:17;;;;;;;89.20;23.30;;;;;;;;;;5011449;28;20099;-61
2023/01/26 06:09:44;;;;;;;77.75;22.55;;;;;;;;;;5014252;28;20034;-61
2023/01/26 06:12:17;;;;;;;71.13;22.00;;;;;;;;;;5011355;28;20439;-61
2023/01/26 06:14:43;;;;;;;71.78;20.38;;;;;;;;;;5003784;28;20061;-61
2023/01/26 06:17:08;;;;;;;78.88;22.38;;;;;;;;;;5009705;28;20455;-61
2023/01/26 06:19:34;;;;;;;75.65;20.80;;;;;;;;;;5004710;28;20029;-61
2023/01/26 06:22:00;;;;;;;72.32;20.08;;;;;;;;;;5011249;28;20030;-61
2023/01/26 06:24:25;;;;;;;70.90;20.02;;;;;;;;;;5013475;28;20053;-61
2023/01/26 06:26:51;;;;;;;73.30;20.00;;;;;;;;;;5013815;28;20117;-60
2023/01/26 06:29:16;;;;;;;67.68;19.48;;;;;;;;;;5013280;28;20102;-61
2023/01/26 06:31:42;;;;;;;69.22;19.55;;;;;;;;;;5013089;28;20048;-61
2023/01/26 06:34:07;;;;;;;76.07;20.10;;;;;;;;;;5012334;28;20029;-61
2023/01/26 06:36:33;;;;;;;78.18;21.25;;;;;;;;;;5008507;28;20149;-62
2023/01/26 06:38:58;;;;;;;74.93;20.55;;;;;;;;;;5013663;28;20382;-61
2023/01/26 06:41:24;;;;;;;71.30;20.20;;;;;;;;;;5011484;28;20104;-63
2023/01/26 06:43:49;;;;;;;69.95;19.95;;;;;;;;;;5013012;28;20030;-65
2023/01/26 06:46:16;;;;;;;75.25;20.40;;;;;;;;;;5014963;28;20069;-61
2023/01/26 06:48:41;;;;;;;64.63;19.15;;;;;;;;;;5014395;28;20041;-61
2023/01/26 06:51:19;;;;;;;72.47;19.55;;;;;;;;;;5009702;28;20038;-62
2023/01/26 06:53:51;;;;;;;78.03;20.25;;;;;;;;;;5013429;28;20044;-63
2023/01/26 06:56:17;;;;;;;67.50;19.80;;;;;;;;;;5009572;28;20033;-65
2023/01/26 06:58:42;;;;;;;70.93;19.80;;;;;;;;;;5013438;28;20026;-63
2023/01/26 07:01:13;;;;;;;75.15;20.63;;;;;;;;;;5012062;28;20061;-64
2023/01/26 07:03:38;;;;;;;;;;;;;;;;;;4993263;28;20578;-61
2023/01/26 07:06:04;;;;;;;57.92;17.23;;;;;;;;;;5011345;28;19960;-63
2023/01/26 07:08:30;;;;;;;65.47;18.35;;;;;;;;;;5010927;28;20030;-62
2023/01/26 07:10:55;;;;;;;66.28;20.20;;;;;;;;;;5010526;28;20065;-62
2023/01/26 07:13:21;;;;;;;61.50;18.67;;;;;;;;;;5012525;28;20378;-63
2023/01/26 07:15:46;;;;;;;66.38;18.92;;;;;;;;;;5003472;28;20415;-63
2023/01/26 07:18:11;;;;;;;66.50;19.05;;;;;;;;;;4993394;28;20061;-62
2023/01/26 07:20:37;;;;;;;60.95;18.60;;;;;;;;;;5004840;28;20095;-62
2023/01/26 07:23:02;;;;;;;64.03;19.20;;;;;;;;;;5009304;28;20040;-62
2023/01/26 07:25:28;;;;;;;70.38;19.73;;;;;;;;;;5021336;28;20041;-62
2023/01/26 07:27:58;;;;;;;71.43;20.80;;;;;;;;;;5028518;28;20030;-63
2023/01/26 07:30:23;;;;;;;71.68;21.42;;;;;;;;;;5011266;28;20046;-63
2023/01/26 07:32:49;;;;;;;62.97;19.20;;;;;;;;;;5012640;28;20454;-62
2023/01/26 07:35:14;;;;;;;73.47;19.30;;;;;;;;;;5010424;28;20030;-63
2023/01/26 07:37:40;;;;;;;63.83;18.45;;;;;;;;;;5011827;28;20449;-63
2023/01/26 07:40:06;;;;;;;60.85;17.77;;;;;;;;;;5009237;28;20029;-62
2023/01/26 07:42:31;;;;;;;67.20;19.02;;;;;;;;;;5010404;28;20172;-62
2023/01/26 07:44:57;;;;;;;74.30;20.50;;;;;;;;;;5009432;28;20120;-61
2023/01/26 07:47:22;;;;;;;70.90;19.25;;;;;;;;;;5010259;28;20022;-62
2023/01/26 07:49:47;;;;;;;68.68;20.20;;;;;;;;;;5011901;28;20053;-62
2023/01/26 07:52:13;;;;;;;72.05;20.48;;;;;;;;;;5012018;28;20116;-61
2023/01/26 07:54:38;;;;;;;60.63;18.52;;;;;;;;;;5009177;28;20608;-61
2023/01/26 07:57:05;;;;;;;73.45;20.02;;;;;;;;;;5012145;28;20061;-62
2023/01/26 07:59:31;;;;;;;57.15;17.75;;;;;;;;;;5009405;28;20049;-62
2023/01/26 08:01:56;;;;;;;59.53;18.27;;;;;;;;;;5004849;28;20034;-61
2023/01/26 08:04:22;;;;;;;60.58;20.55;;;;;;;;;;4995488;28;20030;-62
2023/01/26 08:06:50;;;;;;;63.40;19.45;;;;;;;;;;5011101;28;20108;-61
2023/01/26 08:09:15;;;;;;;70.88;21.02;;;;;;;;;;5007659;28;20121;-63
2023/01/26 08:11:41;;;;;;;64.32;21.05;;;;;;;;;;5010749;28;20113;-63
2023/01/26 08:14:07;;;;;;;64.82;21.33;;;;;;;;;;5011163;28;20056;-62
2023/01/26 08:16:32;;;;;;;64.20;20.77;;;;;;;;;;5011026;28;20034;-63
2023/01/26 08:18:57;;;;;;;72.18;21.65;;;;;;;;;;5007966;28;20048;-63
2023/01/26 08:21:23;;;;;;;66.78;20.45;;;;;;;;;;5009816;28;20445;-63
2023/01/26 08:23:49;;;;;;;69.18;21.27;;;;;;;;;;5011098;28;20030;-63
2023/01/26 08:26:16;;;;;;;67.93;21.60;;;;;;;;;;5011856;28;20030;-63
2023/01/26 08:28:42;;;;;;;67.28;21.02;;;;;;;;;;5009145;28;20034;-62
2023/01/26 08:31:11;;;;;;;67.97;19.58;;;;;;;;;;5010737;28;20567;-63
2023/01/26 08:33:37;;;;;;;68.75;19.88;;;;;;;;;;5006757;28;20073;-64
2023/01/26 08:36:05;;;;;;;67.90;19.10;;;;;;;;;;5009509;28;20096;-63
2023/01/26 08:38:32;;;;;;;70.95;20.70;;;;;;;;;;5007400;28;20025;-63
2023/01/26 08:41:01;;;;;;;57.97;18.15;;;;;;;;;;5011751;28;20038;-63
2023/01/26 08:43:27;;;;;;;59.92;18.65;;;;;;;;;;5013446;28;20029;-63
2023/01/26 08:45:53;;;;;;;61.58;18.90;;;;;;;;;;5015518;28;20092;-62
2023/01/26 08:48:18;;;;;;;55.97;17.88;;;;;;;;;;5016197;28;20022;-64
2023/01/26 08:50:44;;;;;;;58.38;17.90;;;;;;;;;;5014772;28;20467;-61
2023/01/26 08:53:09;;;;;;;59.60;18.30;;;;;;;;;;5014893;28;20429;-62
2023/01/26 08:55:35;;;;;;;60.08;17.98;;;;;;;;;;5011274;28;20030;-61
2023/01/26 08:58:01;;;;;;;54.25;18.15;;;;;;;;;;5013428;28;20034;-63
2023/01/26 09:00:27;;;;;;;49.53;17.08;;;;;;;;;;5012797;28;20080;-62
2023/01/26 09:03:00;;;;;;;51.83;16.00;;;;;;;;;;5014080;28;20041;-64
2023/01/26 09:05:27;;;;;;;53.30;17.27;;;;;;;;;;5011312;28;20033;-63
2023/01/26 09:07:52;;;;;;;53.15;16.77;;;;;;;;;;5013552;28;20033;-62
2023/01/26 09:10:18;;;;;;;53.72;16.50;;;;;;;;;;5009517;28;20121;-62
2023/01/26 09:12:43;;;;;;;46.45;14.98;;;;;;;;;;5013683;28;20034;-60
2023/01/26 09:15:09;;;;;;;48.35;15.35;;;;;;;;;;5012521;28;20026;-61
2023/01/26 09:17:36;;;;;;;39.28;13.20;;;;;;;;;;5010490;28;20064;-62
2023/01/26 09:20:02;;;;;;;41.45;13.20;;;;;;;;;;5010390;28;20049;-61
2023/01/26 09:22:28;;;;;;;43.47;14.27;;;;;;;;;;5008355;28;20475;-61
2023/01/26 09:24:54;;;;;;;38.97;12.23;;;;;;;;;;5012735;28;20049;-63
2023/01/26 09:27:19;;;;;;;33.78;11.05;;;;;;;;;;5011517;28;20037;-62
2023/01/26 09:29:44;;;;;;;33.60;11.75;;;;;;;;;;5011286;28;20376;-63
2023/01/26 09:32:10;;;;;;;30.73;10.32;;;;;;;;;;5009266;28;20088;-61
2023/01/26 09:34:35;;;;;;;35.63;11.32;;;;;;;;;;4999990;28;20459;-62
2023/01/26 09:37:00;;;;;;;32.95;10.75;;;;;;;;;;5011428;28;20100;-62
2023/01/26 09:39:26;;;;;;;35.47;11.77;;;;;;;;;;5010354;28;20034;-62
2023/01/26 09:42:20;;;;;;;41.30;12.10;;;;;;;;;;5012679;28;20376;-61
2023/01/26 09:45:04;;;;;;;33.90;11.00;;;;;;;;;;5011806;28;20033;-62
2023/01/26 09:47:44;;;;;;;31.35;11.18;;;;;;;;;;5011114;28;20054;-62
2023/01/26 09:50:23;;;;;;;32.85;10.82;;;;;;;;;;5012321;28;20037;-60
2023/01/26 09:52:58;;;;;;;33.05;12.10;;;;;;;;;;5012719;28;20065;-61
2023/01/26 09:55:24;;;;;;;29.15;10.05;;;;;;;;;;5011712;28;20450;-61
2023/01/26 09:57:55;;;;;;;32.40;10.40;;;;;;;;;;5009707;28;20034;-61
2023/01/26 10:00:32;;;;;;;32.67;10.80;;;;;;;;;;5015630;28;20065;-62
2023/01/26 10:03:16;;;;;;;29.00;10.63;;;;;;;;;;5013814;28;20034;-62
2023/01/26 10:05:48;;;;;;;29.40;9.85;;;;;;;;;;5008593;28;20022;-63
2023/01/26 10:08:17;;;;;;;26.27;10.32;;;;;;;;;;5009944;28;20061;-63
2023/01/26 10:11:11;;;;;;;28.25;10.60;;;;;;;;;;5010067;28;20026;-62
2023/01/26 10:13:37;;;;;;;29.75;9.48;;;;;;;;;;5011735;28;20049;-62
2023/01/26 10:16:08;;;;;;;25.45;9.27;;;;;;;;;;5013906;28;20026;-62
2023/01/26 10:18:53;;;;;;;30.48;10.50;;;;;;;;;;5009774;28;20145;-62
2023/01/26 10:21:24;;;;;;;30.90;10.88;;;;;;;;;;5012032;28;20033;-62
2023/01/26 10:23:51;;;;;;;26.40;9.32;;;;;;;;;;5013810;28;20022;-62
2023/01/26 10:26:22;;;;;;;23.83;9.18;;;;;;;;;;5013657;28;20121;-61
2023/01/26 10:28:49;;;;;;;;;;;;;;;;;;5012987;28;20041;-61
2023/01/26 10:31:25;;;;;;;18.10;7.10;;;;;;;;;;5011481;28;19913;-61
2023/01/26 10:33:54;;;;;;;25.02;8.48;;;;;;;;;;5025332;28;20029;-62
2023/01/26 10:36:19;;;;;;;25.52;8.65;;;;;;;;;;5015915;28;20133;-62
2023/01/26 10:38:47;;;;;;;24.38;8.20;;;;;;;;;;5008361;28;20121;-62
2023/01/26 10:41:18;;;;;;;23.80;8.57;;;;;;;;;;5013548;28;20056;-62
2023/01/26 10:43:57;;;;;;;26.88;9.38;;;;;;;;;;5011559;28;20121;-61
2023/01/26 10:46:38;;;;;;;19.85;7.63;;;;;;;;;;5016432;28;20129;-61
2023/01/26 10:49:07;;;;;;;22.67;8.70;;;;;;;;;;5011993;28;20364;-62
2023/01/26 10:51:33;;;;;;;23.25;8.65;;;;;;;;;;5007153;28;20089;-61
2023/01/26 10:54:35;;;;;;;24.60;8.55;;;;;;;;;;5007907;28;20112;-61
2023/01/26 10:57:21;;;;;;;22.38;8.40;;;;;;;;;;4971807;28;20073;-63
2023/01/26 10:59:54;;;;;;;21.73;8.13;;;;;;;;;;4997706;28;20344;-64
2023/01/26 11:02:22;;;;;;;20.92;7.78;;;;;;;;;;5013187;28;20025;-63
2023/01/26 11:05:01;;;;;;;22.92;8.23;;;;;;;;;;5010015;28;20036;-63
2023/01/26 11:07:30;;;;;;;25.00;7.65;;;;;;;;;;5003650;28;20033;-64
2023/01/26 11:09:56;;;;;;;17.25;6.55;;;;;;;;;;5003342;28;20057;-63
2023/01/26 11:12:24;;;;;;;21.65;7.63;;;;;;;;;;5012715;28;20104;-65
2023/01/26 11:15:05;;;;;;;19.73;7.20;;;;;;;;;;5011760;28;20056;-65
2023/01/26 11:17:56;;;;;;;22.58;8.38;;;;;;;;;;5010689;28;20037;-64
2023/01/26 11:20:55;;;;;;;22.13;7.07;;;;;;;;;;5011305;28;20050;-64
2023/01/26 11:23:51;;;;;;;22.25;7.75;;;;;;;;;;5011740;28;20426;-62
2023/01/26 11:26:40;;;;;;;21.10;8.80;;;;;;;;;;5009106;28;20040;-61
2023/01/26 11:29:41;;;;;;;22.08;7.75;;;;;;;;;;5012618;28;20045;-61
2023/01/26 11:32:31;;;;;;;19.40;7.13;;;;;;;;;;5013550;28;20042;-61
2023/01/26 11:35:27;;;;;;;17.75;6.63;;;;;;;;;;5015607;28;20061;-61
2023/01/26 11:38:30;;;;;;;20.95;7.70;;;;;;;;;;5007976;28;20468;-62
2023/01/26 11:41:24;;;;;;;20.65;7.03;;;;;;;;;;4970483;28;20045;-62
2023/01/26 11:43:52;;;;;;;25.13;9.07;;;;;;;;;;4994971;28;20049;-62
2023/01/26 11:46:51;;;;;;;25.05;9.45;;;;;;;;;;4997822;28;20040;-62
2023/01/26 11:49:28;;;;;;;24.90;9.10;;;;;;;;;;4975704;28;20089;-61
2023/01/26 11:52:02;;;;;;;24.88;8.48;;;;;;;;;;4995293;28;20138;-61
2023/01/26 11:54:28;;;;;;;24.38;8.07;;;;;;;;;;5009301;28;20029;-62
2023/01/26 11:57:32;;;;;;;25.23;8.95;;;;;;;;;;5007226;28;20483;-61
2023/01/26 12:00:12;;;;;;;20.08;8.13;;;;;;;;;;4995635;28;20042;-60
2023/01/26 12:02:40;;;;;;;21.40;7.50;;;;;;;;;;5009015;28;20034;-61
2023/01/26 12:05:38;;;;;;;20.83;8.02;;;;;;;;;;4999202;28;20038;-60
2023/01/26 12:08:41;;;;;;;18.80;7.85;;;;;;;;;;5008239;28;20053;-61
2023/01/26 12:11:21;;;;;;;20.65;8.55;;;;;;;;;;5000607;28;20407;-61
2023/01/26 12:14:00;;;;;;;22.88;7.78;;;;;;;;;;5002679;28;20487;-62
2023/01/26 12:16:48;;;;;;;26.20;9.15;;;;;;;;;;5011367;28;20096;-62
2023/01/26 12:19:38;;;;;;;22.48;7.90;;;;;;;;;;5011286;28;20061;-62
2023/01/26 12:22:31;;;;;;;23.13;8.18;;;;;;;;;;5011358;28;20025;-63
2023/01/26 12:25:20;;;;;;;23.60;8.15;;;;;;;;;;5003338;28;20044;-62
2023/01/26 12:27:54;;;;;;;27.42;9.13;;;;;;;;;;5008902;28;20049;-63
2023/01/26 12:30:31;;;;;;;21.17;8.25;;;;;;;;;;5011115;28;20041;-63
2023/01/26 12:32:57;;;;;;;22.90;8.73;;;;;;;;;;5010579;28;20038;-63
2023/01/26 12:36:00;;;;;;;18.73;6.97;;;;;;;;;;5011313;28;20049;-62
2023/01/26 12:38:58;;;;;;;22.63;8.77;;;;;;;;;;5008718;28;20073;-60
2023/01/26 12:41:48;;;;;;;20.10;8.30;;;;;;;;;;5010492;28;20034;-62
2023/01/26 12:44:26;;;;;;;22.90;7.75;;;;;;;;;;4992250;28;20034;-62
2023/01/26 12:46:57;;;;;;;22.77;8.65;;;;;;;;;;5000007;28;20095;-63
2023/01/26 12:49:29;;;;;;;22.27;8.10;;;;;;;;;;5010394;28;20034;-62
2023/01/26 12:52:06;;;;;;;19.13;7.85;;;;;;;;;;5010629;28;20037;-62
2023/01/26 12:54:58;;;;;;;19.48;7.75;;;;;;;;;;5010899;28;20030;-63
2023/01/26 12:57:33;;;;;;;22.35;9.00;;;;;;;;;;5009322;28;20391;-62
2023/01/26 13:00:19;;;;;;;19.70;8.18;;;;;;;;;;5011533;28;20064;-62
2023/01/26 13:02:49;;;;;;;21.67;8.48;;;;;;;;;;4990455;28;20093;-63
2023/01/26 13:05:35;;;;;;;27.48;9.38;;;;;;;;;;4991893;28;20027;-63
2023/01/26 13:08:26;;;;;;;22.25;9.23;;;;;;;;;;4991370;28;20042;-62
2023/01/26 13:10:52;;;;;;;23.52;9.98;;;;;;;;;;4987763;28;20054;-62
2023/01/26 13:13:17;;;;;;;22.00;9.25;;;;;;;;;;5010228;28;20038;-62
2023/01/26 13:15:42;;;;;;;23.85;9.23;;;;;;;;;;5007083;28;20033;-62
2023/01/26 13:18:15;;;;;;;22.88;10.07;;;;;;;;;;5010607;28;20474;-65
2023/01/26 13:20:45;;;;;;;21.90;8.70;;;;;;;;;;5008982;28;20550;-62
2023/01/26 13:23:42;;;;;;;26.02;9.00;;;;;;;;;;5010141;28;20034;-63
2023/01/26 13:26:32;;;;;;;22.75;9.43;;;;;;;;;;5009695;28;20038;-62
2023/01/26 13:29:36;;;;;;;25.55;9.13;;;;;;;;;;5011791;28;20455;-60
2023/01/26 13:32:08;;;;;;;27.13;9.07;;;;;;;;;;5013465;28;20090;-63
2023/01/26 13:34:53;;;;;;;26.95;10.25;;;;;;;;;;5011336;28;20038;-63
2023/01/26 13:37:45;;;;;;;24.90;9.93;;;;;;;;;;5013356;28;20042;-62
2023/01/26 13:40:20;;;;;;;25.92;8.82;;;;;;;;;;5014871;28;20034;-62
2023/01/26 13:43:11;;;;;;;22.05;9.70;;;;;;;;;;5011815;28;20045;-62
2023/01/26 13:45:58;;;;;;;25.35;9.48;;;;;;;;;;5013542;28;20061;-62
2023/01/26 13:48:46;;;;;;;32.90;10.73;;;;;;;;;;5013642;28;20048;-60
2023/01/26 13:51:16;;;;;;;33.88;9.80;;;;;;;;;;5013123;28;20434;-62
2023/01/26 13:53:56;;;;;;;33.53;10.82;;;;;;;;;;5009398;28;20030;-62
2023/01/26 13:56:28;;;;;;;34.38;10.73;;;;;;;;;;5008761;28;20057;-61
2023/01/26 13:59:03;;;;;;;38.75;11.25;;;;;;;;;;5008038;28;20030;-62
2023/01/26 14:01:28;;;;;;;38.35;10.88;;;;;;;;;;5008266;28;20491;-61
2023/01/26 14:04:11;;;;;;;41.15;11.77;;;;;;;;;;5012571;28;20068;-61
2023/01/26 14:06:37;;;;;;;36.53;11.02;;;;;;;;;;5011988;28;20029;-61
2023/01/26 14:09:05;;;;;;;44.22;12.45;;;;;;;;;;5032487;28;20079;-61
2023/01/26 14:11:32;;;;;;;40.15;12.68;;;;;;;;;;5023492;28;21171;-61
2023/01/26 14:14:01;;;;;;;42.60;12.07;;;;;;;;;;5007680;28;20036;-61
2023/01/26 14:16:32;;;;;;;46.60;12.52;;;;;;;;;;4994596;28;20031;-62
2023/01/26 14:19:12;;;;;;;41.90;12.30;;;;;;;;;;5011645;28;20581;-62
2023/01/26 14:22:11;;;;;;;42.60;12.38;;;;;;;;;;5009784;28;20030;-63
2023/01/26 14:24:40;;;;;;;39.75;12.27;;;;;;;;;;5011914;28;20042;-61
2023/01/26 14:27:18;;;;;;;39.33;11.95;;;;;;;;;;5012438;28;20038;-61
2023/01/26 14:29:44;;;;;;;45.60;13.35;;;;;;;;;;5012742;28;20108;-61
2023/01/26 14:32:15;;;;;;;46.30;13.95;;;;;;;;;;5012021;28;20105;-60
2023/01/26 14:34:54;;;;;;;43.08;12.90;;;;;;;;;;5013112;28;20037;-61
2023/01/26 14:37:19;;;;;;;44.30;12.77;;;;;;;;;;5009574;28;20074;-62
2023/01/26 14:39:46;;;;;;;51.63;12.90;;;;;;;;;;5011656;28;20061;-62
2023/01/26 14:42:17;;;;;;;46.70;13.57;;;;;;;;;;5012392;28;20040;-61
2023/01/26 14:44:43;;;;;;;50.65;12.65;;;;;;;;;;5012688;28;20471;-61
2023/01/26 14:47:27;;;;;;;41.67;11.93;;;;;;;;;;5010927;28;20060;-61
2023/01/26 14:50:09;;;;;;;42.17;12.63;;;;;;;;;;5010237;28;20084;-62
2023/01/26 14:52:37;;;;;;;43.97;12.38;;;;;;;;;;5010486;28;20038;-63
2023/01/26 14:55:24;;;;;;;44.50;12.77;;;;;;;;;;5013384;28;20038;-61
2023/01/26 14:57:51;;;;;;;45.85;12.68;;;;;;;;;;5004050;28;20378;-62
2023/01/26 15:00:28;;;;;;;46.38;13.00;;;;;;;;;;5013219;28;20038;-61
2023/01/26 15:02:56;;;;;;;43.67;13.15;;;;;;;;;;5010915;28;20215;-62
2023/01/26 15:05:34;;;;;;;47.53;12.00;;;;;;;;;;5011046;28;20038;-62
2023/01/26 15:08:02;;;;;;;48.47;12.63;;;;;;;;;;5012708;28;20093;-62
2023/01/26 15:10:39;;;;;;;43.97;13.10;;;;;;;;;;5010159;28;20034;-61
2023/01/26 15:13:13;;;;;;;54.22;14.20;;;;;;;;;;5012732;28;20398;-61
2023/01/26 15:15:41;;;;;;;53.88;15.02;;;;;;;;;;5007392;28;20053;-61
2023/01/26 15:18:12;;;;;;;51.78;14.32;;;;;;;;;;5010722;28;20049;-61
2023/01/26 15:20:48;;;;;;;;;;;;;;;;;;5008570;28;20501;-61
2023/01/26 15:23:24;;;;;;;44.80;12.98;;;;;;;;;;5011413;28;19917;-63